createdAt,value
2022-08-26T00:00:44.467Z,7
2022-08-26T00:01:44.866Z,6
2022-08-26T00:02:44.465Z,5
2022-08-26T00:03:44.530Z,6
2022-08-26T00:04:44.481Z,6
2022-08-26T00:05:44.477Z,6
2022-08-26T00:06:46.151Z,7
2022-08-26T00:07:44.477Z,8
2022-08-26T00:08:44.452Z,6
2022-08-26T00:09:47.318Z,7
2022-08-26T00:10:44.468Z,5
2022-08-26T00:11:44.478Z,6
2022-08-26T00:12:44.529Z,5
2022-08-26T00:13:47.818Z,7
2022-08-26T00:14:44.483Z,5
2022-08-26T00:15:44.458Z,5
2022-08-26T00:16:47.929Z,7
2022-08-26T00:17:44.479Z,5
2022-08-26T00:18:44.467Z,7
2022-08-26T00:19:44.485Z,7
2022-08-26T00:20:44.464Z,6
2022-08-26T00:21:44.470Z,7
2022-08-26T00:22:44.474Z,5
2022-08-26T00:23:44.508Z,5
2022-08-26T00:24:47.884Z,7
2022-08-26T00:25:44.484Z,5
2022-08-26T00:26:44.698Z,6
2022-08-26T00:27:44.469Z,6
2022-08-26T00:28:44.479Z,8
2022-08-26T00:29:44.518Z,6
2022-08-26T00:30:44.468Z,6
2022-08-26T00:31:45.104Z,6
2022-08-26T00:32:46.338Z,6
2022-08-26T00:33:44.503Z,8
2022-08-26T00:34:44.538Z,6
2022-08-26T00:35:45.324Z,6
2022-08-26T00:36:44.492Z,6
2022-08-26T00:37:44.467Z,6
2022-08-26T00:38:44.468Z,5
2022-08-26T00:39:44.495Z,6
2022-08-26T00:40:44.481Z,6
2022-08-26T00:41:44.472Z,6
2022-08-26T00:42:45.888Z,6
2022-08-26T00:43:47.789Z,6
2022-08-26T00:44:44.509Z,5
2022-08-26T00:45:44.520Z,6
2022-08-26T00:46:46.357Z,7
2022-08-26T00:47:44.501Z,6
2022-08-26T00:48:44.474Z,5
2022-08-26T00:49:44.516Z,7
2022-08-26T00:50:44.499Z,6
2022-08-26T00:51:44.530Z,6
2022-08-26T00:52:44.483Z,6
2022-08-26T00:53:44.502Z,6
2022-08-26T00:54:44.512Z,6
2022-08-26T00:55:44.491Z,7
2022-08-26T00:56:44.496Z,5
2022-08-26T00:57:44.482Z,7
2022-08-26T00:58:44.477Z,6
2022-08-26T00:59:44.508Z,5
2022-08-26T01:00:45.202Z,7
2022-08-26T01:01:45.988Z,6
2022-08-26T01:02:46.847Z,5
2022-08-26T01:03:44.542Z,7
2022-08-26T01:04:44.521Z,5
2022-08-26T01:05:44.482Z,6
2022-08-26T01:06:44.493Z,6
2022-08-26T01:07:44.492Z,5
2022-08-26T01:08:44.484Z,6
2022-08-26T01:09:44.501Z,6
2022-08-26T01:10:44.495Z,5
2022-08-26T01:11:44.496Z,6
2022-08-26T01:12:44.473Z,6
2022-08-26T01:13:44.481Z,6
2022-08-26T01:14:46.433Z,6
2022-08-26T01:15:44.548Z,7
2022-08-26T01:16:44.537Z,6
2022-08-26T01:17:44.480Z,5
2022-08-26T01:18:44.499Z,6
2022-08-26T01:19:44.525Z,5
2022-08-26T01:20:44.502Z,7
2022-08-26T01:21:44.520Z,7
2022-08-26T01:22:44.482Z,6
2022-08-26T01:23:45.064Z,6
2022-08-26T01:24:44.504Z,5
2022-08-26T01:25:44.492Z,6
2022-08-26T01:26:44.507Z,6
2022-08-26T01:27:44.801Z,6
2022-08-26T01:28:44.485Z,6
2022-08-26T01:29:44.517Z,5
2022-08-26T01:30:44.502Z,7
2022-08-26T01:31:44.603Z,7
2022-08-26T01:32:44.495Z,6
2022-08-26T01:33:44.488Z,5
2022-08-26T01:34:44.513Z,6
2022-08-26T01:35:44.491Z,5
2022-08-26T01:36:47.925Z,6
2022-08-26T01:37:44.486Z,7
2022-08-26T01:38:44.507Z,6
2022-08-26T01:39:45.006Z,6
2022-08-26T01:40:44.544Z,6
2022-08-26T01:41:44.522Z,5
2022-08-26T01:42:44.512Z,6
2022-08-26T01:43:44.499Z,10
2022-08-26T01:44:44.516Z,5
2022-08-26T01:45:44.603Z,6
2022-08-26T01:46:44.499Z,5
2022-08-26T01:47:44.514Z,8
2022-08-26T01:48:44.502Z,7
2022-08-26T01:49:44.522Z,6
2022-08-26T01:50:44.535Z,6
2022-08-26T01:51:44.531Z,6
2022-08-26T01:52:44.503Z,7
2022-08-26T01:53:46.105Z,8
2022-08-26T01:54:46.346Z,6
2022-08-26T01:55:44.508Z,6
2022-08-26T01:56:44.504Z,7
2022-08-26T01:57:44.512Z,8
2022-08-26T01:58:44.513Z,7
2022-08-26T01:59:44.513Z,6
2022-08-26T02:00:44.602Z,6
2022-08-26T02:01:44.523Z,5
2022-08-26T02:02:44.523Z,7
2022-08-26T02:03:44.513Z,6
2022-08-26T02:04:44.619Z,7
2022-08-26T02:05:44.511Z,6
2022-08-26T02:06:44.512Z,6
2022-08-26T02:07:44.510Z,6
2022-08-26T02:08:44.584Z,7
2022-08-26T02:09:44.518Z,6
2022-08-26T02:10:44.506Z,6
2022-08-26T02:11:44.509Z,7
2022-08-26T02:12:44.498Z,7
2022-08-26T02:13:44.502Z,6
2022-08-26T02:14:44.594Z,9
2022-08-26T02:15:44.512Z,6
2022-08-26T02:16:44.588Z,7
2022-08-26T02:17:44.503Z,7
2022-08-26T02:18:44.505Z,6
2022-08-26T02:19:44.534Z,7
2022-08-26T02:20:44.518Z,7
2022-08-26T02:21:44.512Z,8
2022-08-26T02:22:45.073Z,7
2022-08-26T02:23:44.526Z,8
2022-08-26T02:24:44.549Z,6
2022-08-26T02:25:44.575Z,6
2022-08-26T02:26:44.506Z,6
2022-08-26T02:27:44.530Z,7
2022-08-26T02:28:44.535Z,7
2022-08-26T02:29:44.536Z,7
2022-08-26T02:30:44.524Z,6
2022-08-26T02:31:44.591Z,7
2022-08-26T02:32:44.517Z,6
2022-08-26T02:33:44.509Z,6
2022-08-26T02:34:44.543Z,6
2022-08-26T02:35:44.535Z,6
2022-08-26T02:36:44.517Z,7
2022-08-26T02:37:44.530Z,7
2022-08-26T02:38:44.602Z,7
2022-08-26T02:39:44.540Z,10
2022-08-26T02:40:44.536Z,7
2022-08-26T02:41:45.342Z,7
2022-08-26T02:42:44.515Z,8
2022-08-26T02:43:44.532Z,9
2022-08-26T02:44:44.547Z,7
2022-08-26T02:45:44.529Z,9
2022-08-26T02:46:46.812Z,9
2022-08-26T02:47:44.525Z,7
2022-08-26T02:48:44.527Z,7
2022-08-26T02:49:44.555Z,6
2022-08-26T02:50:44.559Z,7
2022-08-26T02:51:44.520Z,7
2022-08-26T02:52:44.522Z,7
2022-08-26T02:53:44.531Z,7
2022-08-26T02:54:44.556Z,9
2022-08-26T02:55:44.527Z,7
2022-08-26T02:56:44.529Z,7
2022-08-26T02:57:44.523Z,7
2022-08-26T02:58:44.544Z,8
2022-08-26T02:59:44.589Z,9
2022-08-26T03:00:53.373Z,8
2022-08-26T03:01:44.598Z,9
2022-08-26T03:02:44.537Z,11
2022-08-26T03:03:44.532Z,7
2022-08-26T03:04:57.371Z,8
2022-08-26T03:05:44.545Z,8
2022-08-26T03:06:52.691Z,7
2022-08-26T03:07:44.541Z,7
2022-08-26T03:08:44.548Z,7
2022-08-26T03:09:44.541Z,8
2022-08-26T03:10:44.528Z,8
2022-08-26T03:11:44.545Z,7
2022-08-26T03:12:44.536Z,7
2022-08-26T03:13:44.572Z,7
2022-08-26T03:14:44.544Z,10
2022-08-26T03:15:44.632Z,9
2022-08-26T03:16:44.547Z,8
2022-08-26T03:17:44.537Z,9
2022-08-26T03:18:44.610Z,9
2022-08-26T03:19:44.558Z,8
2022-08-26T03:20:44.625Z,8
2022-08-26T03:21:44.537Z,7
2022-08-26T03:22:44.542Z,8
2022-08-26T03:23:44.544Z,8
2022-08-26T03:24:46.142Z,7
2022-08-26T03:25:44.529Z,8
2022-08-26T03:26:52.349Z,8
2022-08-26T03:27:44.558Z,7
2022-08-26T03:28:44.542Z,9
2022-08-26T03:29:44.562Z,8
2022-08-26T03:30:45.503Z,8
2022-08-26T03:31:44.590Z,9
2022-08-26T03:32:44.538Z,8
2022-08-26T03:33:44.550Z,8
2022-08-26T03:34:44.567Z,8
2022-08-26T03:35:44.622Z,9
2022-08-26T03:36:44.540Z,9
2022-08-26T03:37:44.548Z,9
2022-08-26T03:38:44.548Z,11
2022-08-26T03:39:44.566Z,10
2022-08-26T03:40:44.544Z,9
2022-08-26T03:41:44.541Z,9
2022-08-26T03:42:45.437Z,10
2022-08-26T03:43:44.550Z,9
2022-08-26T03:44:44.586Z,10
2022-08-26T03:45:44.542Z,9
2022-08-26T03:46:44.666Z,8
2022-08-26T03:47:44.621Z,10
2022-08-26T03:48:44.562Z,10
2022-08-26T03:49:44.568Z,10
2022-08-26T03:50:44.550Z,10
2022-08-26T03:51:44.553Z,9
2022-08-26T03:52:44.591Z,8
2022-08-26T03:53:44.548Z,9
2022-08-26T03:54:44.564Z,9
2022-08-26T03:55:44.565Z,9
2022-08-26T03:56:46.552Z,8
2022-08-26T03:57:44.583Z,11
2022-08-26T03:58:44.574Z,8
2022-08-26T03:59:44.630Z,9
2022-08-26T04:00:44.559Z,8
2022-08-26T04:01:44.683Z,8
2022-08-26T04:02:44.591Z,11
2022-08-26T04:03:44.557Z,9
2022-08-26T04:04:44.641Z,12
2022-08-26T04:05:44.570Z,9
2022-08-26T04:06:44.918Z,8
2022-08-26T04:07:44.559Z,9
2022-08-26T04:08:44.569Z,10
2022-08-26T04:09:44.561Z,9
2022-08-26T04:10:44.557Z,23
2022-08-26T04:11:44.545Z,17
2022-08-26T04:12:44.550Z,8
2022-08-26T04:13:44.557Z,8
2022-08-26T04:14:44.608Z,9
2022-08-26T04:15:44.643Z,9
2022-08-26T04:16:44.556Z,9
2022-08-26T04:17:44.565Z,29
2022-08-26T04:18:46.689Z,10
2022-08-26T04:19:44.568Z,10
2022-08-26T04:20:44.568Z,13
2022-08-26T04:21:44.562Z,9
2022-08-26T04:22:44.567Z,15
2022-08-26T04:23:47.198Z,11
2022-08-26T04:24:44.646Z,9
2022-08-26T04:25:44.636Z,8
2022-08-26T04:26:44.572Z,9
2022-08-26T04:27:44.565Z,11
2022-08-26T04:28:44.562Z,9
2022-08-26T04:29:44.608Z,9
2022-08-26T04:30:44.559Z,8
2022-08-26T04:31:44.632Z,13
2022-08-26T04:32:44.579Z,34
2022-08-26T04:33:44.579Z,12
2022-08-26T04:34:45.015Z,18
2022-08-26T04:35:44.584Z,30
2022-08-26T04:36:44.585Z,38
2022-08-26T04:37:44.578Z,25
2022-08-26T04:38:44.567Z,32
2022-08-26T04:39:44.638Z,37
2022-08-26T04:40:46.876Z,42
2022-08-26T04:41:44.573Z,26
2022-08-26T04:42:44.575Z,41
2022-08-26T04:43:44.586Z,29
2022-08-26T04:44:44.577Z,17
2022-08-26T04:45:44.592Z,36
2022-08-26T04:46:44.662Z,47
2022-08-26T04:47:44.565Z,26
2022-08-26T04:48:44.568Z,39
2022-08-26T04:50:44.710Z,51
2022-08-26T04:51:44.575Z,46
2022-08-26T04:52:44.560Z,39
2022-08-26T04:53:44.570Z,41
2022-08-26T04:54:44.572Z,40
2022-08-26T04:55:45.079Z,33
2022-08-26T04:56:44.570Z,27
2022-08-26T04:57:44.570Z,54
2022-08-26T04:58:44.572Z,46
2022-08-26T04:59:44.575Z,32
2022-08-26T05:00:44.637Z,43
2022-08-26T05:01:44.644Z,42
2022-08-26T05:02:44.580Z,34
2022-08-26T05:03:44.637Z,53
2022-08-26T05:04:44.590Z,45
2022-08-26T05:05:44.603Z,42
2022-08-26T05:06:44.567Z,58
2022-08-26T05:07:44.582Z,47
2022-08-26T05:08:44.588Z,47
2022-08-26T05:09:44.585Z,52
2022-08-26T05:10:44.588Z,64
2022-08-26T05:11:44.593Z,57
2022-08-26T05:12:44.593Z,59
2022-08-26T05:13:44.576Z,47
2022-08-26T05:14:44.573Z,31
2022-08-26T05:15:44.643Z,45
2022-08-26T05:16:44.573Z,59
2022-08-26T05:17:44.587Z,30
2022-08-26T05:18:44.681Z,55
2022-08-26T05:19:44.592Z,33
2022-08-26T05:20:44.590Z,48
2022-08-26T05:21:44.594Z,50
2022-08-26T05:22:44.580Z,46
2022-08-26T05:23:44.576Z,30
2022-08-26T05:24:44.581Z,63
2022-08-26T05:25:44.581Z,64
2022-08-26T05:26:44.866Z,61
2022-08-26T05:27:44.583Z,43
2022-08-26T05:28:44.574Z,61
2022-08-26T05:29:44.582Z,40
2022-08-26T05:30:44.669Z,45
2022-08-26T05:31:44.586Z,59
2022-08-26T05:32:44.576Z,44
2022-08-26T05:33:44.593Z,55
2022-08-26T05:34:44.586Z,31
2022-08-26T05:35:44.618Z,35
2022-08-26T05:36:44.649Z,29
2022-08-26T05:37:44.576Z,28
2022-08-26T05:38:44.583Z,28
2022-08-26T05:39:51.290Z,30
2022-08-26T05:40:44.616Z,32
2022-08-26T05:41:44.760Z,40
2022-08-26T05:42:44.586Z,36
2022-08-26T05:43:44.594Z,30
2022-08-26T05:44:55.542Z,27
2022-08-26T05:45:46.182Z,28
2022-08-26T05:46:44.905Z,45
2022-08-26T05:47:44.590Z,27
2022-08-26T05:48:44.612Z,45
2022-08-26T05:49:51.481Z,30
2022-08-26T05:50:44.620Z,28
2022-08-26T05:51:44.593Z,40
2022-08-26T05:52:44.591Z,32
2022-08-26T05:53:54.436Z,32
2022-08-26T05:54:44.606Z,30
2022-08-26T05:55:44.603Z,32
2022-08-26T05:56:44.596Z,38
2022-08-26T05:57:44.599Z,29
2022-08-26T05:58:44.603Z,30
2022-08-26T05:59:44.588Z,30
2022-08-26T06:00:44.597Z,37
2022-08-26T06:01:44.683Z,40
2022-08-26T06:02:44.667Z,32
2022-08-26T06:03:44.588Z,35
2022-08-26T06:04:44.924Z,33
2022-08-26T06:05:44.635Z,37
2022-08-26T06:06:45.100Z,28
2022-08-26T06:07:44.608Z,36
2022-08-26T06:08:44.600Z,29
2022-08-26T06:09:44.609Z,32
2022-08-26T06:10:44.611Z,27
2022-08-26T06:11:44.602Z,28
2022-08-26T06:12:44.643Z,28
2022-08-26T06:13:44.597Z,31
2022-08-26T06:14:44.604Z,29
2022-08-26T06:15:44.644Z,24
2022-08-26T06:16:44.607Z,25
2022-08-26T06:17:44.641Z,27
2022-08-26T06:18:44.611Z,29
2022-08-26T06:19:44.599Z,24
2022-08-26T06:20:54.596Z,24
2022-08-26T06:21:44.603Z,28
2022-08-26T06:22:44.608Z,28
2022-08-26T06:23:44.597Z,28
2022-08-26T06:24:44.601Z,24
2022-08-26T06:25:44.603Z,21
2022-08-26T06:26:46.675Z,24
2022-08-26T06:27:44.616Z,29
2022-08-26T06:28:45.590Z,21
2022-08-26T06:29:44.620Z,22
2022-08-26T06:30:44.695Z,19
2022-08-26T06:31:44.602Z,21
2022-08-26T06:32:44.616Z,21
2022-08-26T06:33:44.610Z,20
2022-08-26T06:34:44.616Z,20
2022-08-26T06:35:44.634Z,26
2022-08-26T06:37:44.607Z,18
2022-08-26T06:38:44.605Z,18
2022-08-26T06:39:44.604Z,18
2022-08-26T06:40:44.628Z,19
2022-08-26T06:41:44.621Z,22
2022-08-26T06:42:44.604Z,23
2022-08-26T06:43:44.630Z,19
2022-08-26T06:44:44.933Z,19
2022-08-26T06:45:44.615Z,17
2022-08-26T06:46:44.646Z,18
2022-08-26T06:47:44.605Z,26
2022-08-26T06:48:44.597Z,28
2022-08-26T06:49:44.619Z,28
2022-08-26T06:50:44.640Z,21
2022-08-26T06:51:44.639Z,20
2022-08-26T06:52:44.605Z,25
2022-08-26T06:53:44.603Z,26
2022-08-26T06:54:44.614Z,21
2022-08-26T06:55:44.672Z,18
2022-08-26T06:56:44.599Z,18
2022-08-26T06:57:44.606Z,25
2022-08-26T06:58:44.612Z,20
2022-08-26T06:59:44.620Z,17
2022-08-26T07:00:47.171Z,16
2022-08-26T07:01:44.933Z,17
2022-08-26T07:02:46.898Z,17
2022-08-26T07:03:44.639Z,24
2022-08-26T07:04:51.176Z,21
2022-08-26T07:05:44.622Z,23
2022-08-26T07:06:44.619Z,16
2022-08-26T07:07:44.632Z,20
2022-08-26T07:08:44.661Z,16
2022-08-26T07:09:44.633Z,26
2022-08-26T07:10:44.629Z,16
2022-08-26T07:11:44.674Z,24
2022-08-26T07:12:47.281Z,29
2022-08-26T07:13:44.629Z,27
2022-08-26T07:14:47.417Z,17
2022-08-26T07:15:44.716Z,25
2022-08-26T07:16:44.624Z,22
2022-08-26T07:17:44.637Z,22
2022-08-26T07:18:44.855Z,19
2022-08-26T07:19:44.628Z,25
2022-08-26T07:20:44.649Z,28
2022-08-26T07:21:44.626Z,25
2022-08-26T07:22:44.628Z,23
2022-08-26T07:23:44.630Z,35
2022-08-26T07:24:44.623Z,21
2022-08-26T07:25:44.630Z,29
2022-08-26T07:26:44.620Z,31
2022-08-26T07:27:44.621Z,24
2022-08-26T07:28:44.644Z,18
2022-08-26T07:29:44.628Z,25
2022-08-26T07:30:44.686Z,31
2022-08-26T07:31:44.631Z,27
2022-08-26T07:32:44.625Z,23
2022-08-26T07:34:44.640Z,22
2022-08-26T07:35:44.636Z,24
2022-08-26T07:36:44.625Z,18
2022-08-26T07:37:44.638Z,25
2022-08-26T07:38:44.626Z,27
2022-08-26T07:39:44.633Z,20
2022-08-26T07:40:44.659Z,25
2022-08-26T07:41:44.642Z,21
2022-08-26T07:42:44.642Z,18
2022-08-26T07:43:44.645Z,16
2022-08-26T07:44:44.668Z,19
2022-08-26T07:45:44.652Z,18
2022-08-26T07:46:44.625Z,26
2022-08-26T07:47:44.652Z,28
2022-08-26T07:48:46.090Z,24
2022-08-26T07:49:44.764Z,18
2022-08-26T07:50:50.073Z,17
2022-08-26T07:51:44.638Z,18
2022-08-26T07:52:44.630Z,23
2022-08-26T07:53:44.628Z,21
2022-08-26T07:54:44.634Z,24
2022-08-26T07:55:44.667Z,18
2022-08-26T07:56:44.643Z,25
2022-08-26T07:57:44.628Z,18
2022-08-26T07:58:47.679Z,20
2022-08-26T07:59:44.624Z,22
2022-08-26T08:00:44.653Z,17
2022-08-26T08:01:45.366Z,18
2022-08-26T08:02:44.643Z,20
2022-08-26T08:03:44.630Z,18
2022-08-26T08:05:46.337Z,23
2022-08-26T08:06:44.695Z,17
2022-08-26T08:07:45.591Z,18
2022-08-26T08:08:44.634Z,21
2022-08-26T08:09:44.647Z,16
2022-08-26T08:10:44.655Z,21
2022-08-26T08:11:44.663Z,18
2022-08-26T08:12:44.633Z,17
2022-08-26T08:13:44.705Z,17
2022-08-26T08:14:44.644Z,17
2022-08-26T08:15:44.664Z,15
2022-08-26T08:16:47.061Z,16
2022-08-26T08:17:44.638Z,16
2022-08-26T08:18:44.648Z,15
2022-08-26T08:19:44.645Z,16
2022-08-26T08:20:47.621Z,16
2022-08-26T08:21:44.628Z,15
2022-08-26T08:22:44.644Z,20
2022-08-26T08:23:44.635Z,24
2022-08-26T08:24:44.657Z,22
2022-08-26T08:25:44.710Z,26
2022-08-26T08:26:44.643Z,26
2022-08-26T08:27:44.641Z,24
2022-08-26T08:28:44.640Z,22
2022-08-26T08:29:44.651Z,22
2022-08-26T08:30:44.719Z,22
2022-08-26T08:31:56.467Z,22
2022-08-26T08:32:44.642Z,16
2022-08-26T08:33:44.653Z,18
2022-08-26T08:34:44.653Z,20
2022-08-26T08:35:44.672Z,16
2022-08-26T08:36:44.639Z,16
2022-08-26T08:37:44.646Z,16
2022-08-26T08:38:44.647Z,14
2022-08-26T08:39:44.658Z,15
2022-08-26T08:40:44.665Z,21
2022-08-26T08:41:44.647Z,19
2022-08-26T08:42:44.726Z,18
2022-08-26T08:43:44.646Z,14
2022-08-26T08:44:44.645Z,22
2022-08-26T08:45:44.753Z,15
2022-08-26T08:46:44.656Z,13
2022-08-26T08:47:44.646Z,17
2022-08-26T08:48:44.653Z,15
2022-08-26T08:49:44.659Z,20
2022-08-26T08:50:44.695Z,15
2022-08-26T08:51:44.642Z,17
2022-08-26T08:52:44.657Z,16
2022-08-26T08:53:44.670Z,15
2022-08-26T08:54:44.644Z,16
2022-08-26T08:55:44.672Z,15
2022-08-26T08:56:44.677Z,16
2022-08-26T08:57:44.653Z,17
2022-08-26T08:58:44.662Z,24
2022-08-26T08:59:44.653Z,19
2022-08-26T09:00:44.667Z,15
2022-08-26T09:01:44.869Z,15
2022-08-26T09:02:44.767Z,20
2022-08-26T09:03:44.644Z,25
2022-08-26T09:04:44.722Z,14
2022-08-26T09:05:48.688Z,14
2022-08-26T09:06:44.732Z,23
2022-08-26T09:07:44.660Z,15
2022-08-26T09:08:44.662Z,18
2022-08-26T09:09:44.656Z,16
2022-08-26T09:10:44.668Z,20
2022-08-26T09:11:44.808Z,14
2022-08-26T09:12:44.665Z,23
2022-08-26T09:13:44.708Z,17
2022-08-26T09:14:44.844Z,18
2022-08-26T09:15:44.742Z,17
2022-08-26T09:16:44.756Z,21
2022-08-26T09:17:44.876Z,29
2022-08-26T09:18:46.166Z,23
2022-08-26T09:19:44.672Z,15
2022-08-26T09:20:45.552Z,20
2022-08-26T09:21:44.711Z,23
2022-08-26T09:22:44.715Z,20
2022-08-26T09:23:47.061Z,21
2022-08-26T09:24:48.418Z,20
2022-08-26T09:25:44.825Z,20
2022-08-26T09:26:44.850Z,22
2022-08-26T09:27:44.903Z,21
2022-08-26T09:28:44.767Z,25
2022-08-26T09:29:44.670Z,24
2022-08-26T09:30:44.871Z,20
2022-08-26T09:31:44.836Z,22
2022-08-26T09:32:44.803Z,22
2022-08-26T09:33:44.817Z,21
2022-08-26T09:34:44.830Z,26
2022-08-26T09:35:44.867Z,26
2022-08-26T09:36:44.976Z,25
2022-08-26T09:38:44.887Z,28
2022-08-26T09:39:44.988Z,30
2022-08-26T09:40:44.905Z,30
2022-08-26T09:41:44.871Z,29
2022-08-26T09:42:45.033Z,30
2022-08-26T09:43:44.887Z,25
2022-08-26T09:44:44.917Z,26
2022-08-26T09:45:50.070Z,29
2022-08-26T09:46:44.950Z,32
2022-08-26T09:47:44.673Z,25
2022-08-26T09:48:44.660Z,24
2022-08-26T09:49:44.686Z,27
2022-08-26T09:50:44.790Z,28
2022-08-26T09:51:44.682Z,26
2022-08-26T09:52:44.665Z,26
2022-08-26T09:53:44.720Z,26
2022-08-26T09:54:46.012Z,26
2022-08-26T09:55:44.699Z,26
2022-08-26T09:56:44.666Z,25
2022-08-26T09:57:44.672Z,26
2022-08-26T09:58:44.682Z,23
2022-08-26T09:59:44.690Z,24
2022-08-26T10:00:44.716Z,22
2022-08-26T10:01:45.215Z,25
2022-08-26T10:02:47.657Z,24
2022-08-26T10:03:44.767Z,23
2022-08-26T10:04:44.810Z,23
2022-08-26T10:05:44.695Z,23
2022-08-26T10:06:44.719Z,21
2022-08-26T10:07:44.678Z,21
2022-08-26T10:08:47.705Z,19
2022-08-26T10:09:44.683Z,19
2022-08-26T10:10:45.171Z,21
2022-08-26T10:11:44.730Z,23
2022-08-26T10:12:44.671Z,21
2022-08-26T10:13:44.689Z,21
2022-08-26T10:15:48.747Z,24
2022-08-26T10:16:44.773Z,22
2022-08-26T10:17:44.697Z,20
2022-08-26T10:18:44.676Z,19
2022-08-26T10:19:56.879Z,22
2022-08-26T10:20:44.710Z,23
2022-08-26T10:21:44.680Z,20
2022-08-26T10:22:44.676Z,19
2022-08-26T10:23:45.074Z,20
2022-08-26T10:24:44.688Z,19
2022-08-26T10:25:44.706Z,18
2022-08-26T10:26:44.693Z,19
2022-08-26T10:27:50.962Z,19
2022-08-26T10:28:44.693Z,18
2022-08-26T10:29:44.686Z,19
2022-08-26T10:30:44.699Z,18
2022-08-26T10:31:44.793Z,17
2022-08-26T10:32:44.686Z,20
2022-08-26T10:33:44.691Z,18
2022-08-26T10:34:44.690Z,19
2022-08-26T10:35:44.714Z,19
2022-08-26T10:37:10.588Z,19
2022-08-26T10:37:44.737Z,21
2022-08-26T10:38:44.700Z,19
2022-08-26T10:39:44.690Z,19
2022-08-26T10:40:44.860Z,15
2022-08-26T10:41:44.684Z,18
2022-08-26T10:42:44.688Z,15
2022-08-26T10:43:44.698Z,19
2022-08-26T10:44:44.728Z,18
2022-08-26T10:45:44.796Z,16
2022-08-26T10:46:44.692Z,17
2022-08-26T10:47:44.694Z,19
2022-08-26T10:48:44.700Z,19
2022-08-26T10:49:44.737Z,19
2022-08-26T10:50:44.706Z,20
2022-08-26T10:51:45.637Z,19
2022-08-26T10:52:44.709Z,17
2022-08-26T10:53:44.690Z,19
2022-08-26T10:54:44.691Z,21
2022-08-26T10:55:44.748Z,21
2022-08-26T10:56:44.715Z,21
2022-08-26T10:57:44.690Z,22
2022-08-26T10:58:44.783Z,21
2022-08-26T10:59:44.711Z,20
2022-08-26T11:00:44.786Z,20
2022-08-26T11:01:44.741Z,21
2022-08-26T11:02:47.111Z,17
2022-08-26T11:03:44.786Z,18
2022-08-26T11:04:48.481Z,18
2022-08-26T11:05:44.714Z,17
2022-08-26T11:06:44.709Z,16
2022-08-26T11:07:44.709Z,17
2022-08-26T11:08:44.710Z,18
2022-08-26T11:10:44.724Z,15
2022-08-26T11:11:44.761Z,15
2022-08-26T11:12:44.707Z,15
2022-08-26T11:13:44.722Z,17
2022-08-26T11:14:53.377Z,16
2022-08-26T11:15:44.735Z,19
2022-08-26T11:16:44.740Z,15
2022-08-26T11:17:44.713Z,17
2022-08-26T11:18:44.707Z,14
2022-08-26T11:20:00.134Z,14
2022-08-26T11:20:44.896Z,13
2022-08-26T11:21:44.712Z,14
2022-08-26T11:22:47.956Z,12
2022-08-26T11:23:44.701Z,13
2022-08-26T11:24:44.693Z,16
2022-08-26T11:25:44.728Z,14
2022-08-26T11:26:56.093Z,15
2022-08-26T11:27:44.719Z,13
2022-08-26T11:28:44.704Z,15
2022-08-26T11:29:44.710Z,14
2022-08-26T11:30:44.726Z,13
2022-08-26T11:31:44.778Z,14
2022-08-26T11:32:44.703Z,15
2022-08-26T11:33:44.700Z,15
2022-08-26T11:34:44.721Z,13
2022-08-26T11:35:44.728Z,15
2022-08-26T11:36:44.707Z,16
2022-08-26T11:37:44.719Z,16
2022-08-26T11:38:44.724Z,13
2022-08-26T11:39:47.263Z,14
2022-08-26T11:40:44.988Z,17
2022-08-26T11:41:44.713Z,14
2022-08-26T11:42:44.728Z,16
2022-08-26T11:43:44.697Z,15
2022-08-26T11:44:49.703Z,15
2022-08-26T11:45:44.863Z,17
2022-08-26T11:46:44.717Z,15
2022-08-26T11:47:44.746Z,18
2022-08-26T11:48:44.718Z,15
2022-08-26T11:49:44.729Z,13
2022-08-26T11:50:44.739Z,13
2022-08-26T11:51:48.112Z,14
2022-08-26T11:52:44.779Z,16
2022-08-26T11:53:44.722Z,13
2022-08-26T11:54:44.710Z,12
2022-08-26T11:55:44.742Z,12
2022-08-26T11:56:44.719Z,11
2022-08-26T11:57:44.722Z,14
2022-08-26T11:58:44.734Z,13
2022-08-26T11:59:44.731Z,11
2022-08-26T12:00:45.716Z,12
2022-08-26T12:01:44.709Z,13
2022-08-26T12:03:44.821Z,13
2022-08-26T12:04:44.736Z,15
2022-08-26T12:05:44.743Z,17
2022-08-26T12:06:45.723Z,13
2022-08-26T12:07:44.723Z,15
2022-08-26T12:08:44.728Z,14
2022-08-26T12:09:44.765Z,12
2022-08-26T12:10:44.763Z,13
2022-08-26T12:11:44.737Z,13
2022-08-26T12:12:44.717Z,13
2022-08-26T12:13:44.714Z,13
2022-08-26T12:14:44.751Z,15
2022-08-26T12:15:44.736Z,14
2022-08-26T12:16:44.780Z,18
2022-08-26T12:17:44.735Z,17
2022-08-26T12:18:44.791Z,16
2022-08-26T12:19:44.735Z,14
2022-08-26T12:20:44.808Z,14
2022-08-26T12:21:44.729Z,16
2022-08-26T12:22:48.153Z,14
2022-08-26T12:23:44.741Z,16
2022-08-26T12:24:44.723Z,14
2022-08-26T12:25:44.748Z,16
2022-08-26T12:26:44.736Z,13
2022-08-26T12:27:44.728Z,13
2022-08-26T12:28:44.737Z,12
2022-08-26T12:29:48.405Z,13
2022-08-26T12:30:44.756Z,12
2022-08-26T12:31:44.786Z,14
2022-08-26T12:32:57.711Z,13
2022-08-26T12:33:44.736Z,12
2022-08-26T12:34:44.726Z,15
2022-08-26T12:35:44.770Z,12
2022-08-26T12:36:44.755Z,15
2022-08-26T12:37:44.726Z,12
2022-08-26T12:38:44.724Z,14
2022-08-26T12:39:44.749Z,13
2022-08-26T12:40:44.752Z,14
2022-08-26T12:41:44.746Z,10
2022-08-26T12:42:44.737Z,10
2022-08-26T12:43:44.747Z,10
2022-08-26T12:44:53.256Z,12
2022-08-26T12:45:44.849Z,10
2022-08-26T12:46:49.211Z,12
2022-08-26T12:47:44.751Z,13
2022-08-26T12:48:44.744Z,12
2022-08-26T12:49:44.778Z,12
2022-08-26T12:50:44.811Z,11
2022-08-26T12:51:44.743Z,10
2022-08-26T12:52:44.752Z,10
2022-08-26T12:53:44.757Z,12
2022-08-26T12:54:44.735Z,10
2022-08-26T12:55:44.768Z,14
2022-08-26T12:56:44.755Z,12
2022-08-26T12:57:44.724Z,12
2022-08-26T12:58:44.806Z,11
2022-08-26T12:59:44.748Z,12
2022-08-26T13:00:44.960Z,13
2022-08-26T13:01:44.968Z,12
2022-08-26T13:02:44.723Z,11
2022-08-26T13:03:44.752Z,11
2022-08-26T13:04:44.742Z,11
2022-08-26T13:05:44.750Z,11
2022-08-26T13:06:44.734Z,12
2022-08-26T13:07:44.739Z,14
2022-08-26T13:08:44.749Z,10
2022-08-26T13:09:44.734Z,12
2022-08-26T13:10:44.767Z,10
2022-08-26T13:11:44.746Z,9
2022-08-26T13:12:44.744Z,9
2022-08-26T13:13:44.777Z,10
2022-08-26T13:14:44.777Z,8
2022-08-26T13:15:44.761Z,12
2022-08-26T13:16:44.777Z,10
2022-08-26T13:17:44.731Z,9
2022-08-26T13:18:44.746Z,11
2022-08-26T13:19:44.748Z,12
2022-08-26T13:20:44.770Z,9
2022-08-26T13:21:44.740Z,9
2022-08-26T13:22:44.751Z,9
2022-08-26T13:23:44.756Z,9
2022-08-26T13:24:44.755Z,7
2022-08-26T13:25:44.763Z,8
2022-08-26T13:26:44.751Z,7
2022-08-26T13:27:44.749Z,9
2022-08-26T13:28:44.751Z,7
2022-08-26T13:29:44.803Z,9
2022-08-26T13:30:44.782Z,11
2022-08-26T13:31:45.043Z,6
2022-08-26T13:32:44.740Z,7
2022-08-26T13:33:44.747Z,9
2022-08-26T13:34:48.166Z,5
2022-08-26T13:35:44.788Z,7
2022-08-26T13:36:44.743Z,8
2022-08-26T13:37:44.748Z,8
2022-08-26T13:38:44.737Z,7
2022-08-26T13:39:44.746Z,9
2022-08-26T13:41:44.737Z,8
2022-08-26T13:42:49.425Z,7
2022-08-26T13:43:44.808Z,6
2022-08-26T13:44:44.747Z,7
2022-08-26T13:45:44.755Z,7
2022-08-26T13:47:44.765Z,6
2022-08-26T13:48:44.839Z,7
2022-08-26T13:50:44.752Z,7
2022-08-26T13:51:44.756Z,8
2022-08-26T13:52:44.759Z,7
2022-08-26T13:53:44.771Z,8
2022-08-26T13:54:44.763Z,6
2022-08-26T13:55:44.746Z,6
2022-08-26T13:56:44.746Z,5
2022-08-26T13:57:44.763Z,7
2022-08-26T13:58:44.752Z,10
2022-08-26T13:59:44.761Z,9
2022-08-26T14:00:44.850Z,7
2022-08-26T14:01:44.767Z,6
2022-08-26T14:02:44.767Z,7
2022-08-26T14:03:44.920Z,7
2022-08-26T14:04:44.759Z,6
2022-08-26T14:05:44.818Z,7
2022-08-26T14:06:44.754Z,7
2022-08-26T14:07:44.761Z,7
2022-08-26T14:08:44.748Z,8
2022-08-26T14:09:44.761Z,7
2022-08-26T14:10:44.928Z,8
2022-08-26T14:11:54.331Z,8
2022-08-26T14:12:44.761Z,8
2022-08-26T14:13:44.768Z,6
2022-08-26T14:14:44.804Z,6
2022-08-26T14:15:44.855Z,8
2022-08-26T14:16:58.839Z,6
2022-08-26T14:17:44.813Z,6
2022-08-26T14:18:50.038Z,8
2022-08-26T14:19:44.760Z,5
2022-08-26T14:20:44.751Z,8
2022-08-26T14:21:44.768Z,11
2022-08-26T14:23:03.572Z,8
2022-08-26T14:23:44.758Z,6
2022-08-26T14:24:44.748Z,7
2022-08-26T14:25:45.971Z,7
2022-08-26T14:26:44.779Z,6
2022-08-26T14:27:44.765Z,6
2022-08-26T14:28:44.767Z,6
2022-08-26T14:30:44.758Z,6
2022-08-26T14:31:44.847Z,9
2022-08-26T14:32:44.787Z,7
2022-08-26T14:33:44.758Z,8
2022-08-26T14:34:44.760Z,7
2022-08-26T14:35:48.054Z,6
2022-08-26T14:36:44.777Z,6
2022-08-26T14:37:44.775Z,8
2022-08-26T14:38:44.763Z,7
2022-08-26T14:39:44.767Z,6